sensor_id;sensor_type;location;lat;lon;timestamp;temperature;humidity
16491;DHT22;8356;51.214;3.270;2023-03-01T00:02:02;153.70;2252.80
16491;DHT22;8356;51.214;3.270;2023-03-01T00:04:30;153.70;2252.80
16491;DHT22;8356;51.214;3.270;2023-03-01T00:06:56;153.60;2252.80
16491;DHT22;8356;51.214;3.270;2023-03-01T00:09:22;153.60;2252.80
16491;DHT22;8356;51.214;3.270;2023-03-01T00:11:48;153.70;2252.80
16491;DHT22;8356;51.214;3.270;2023-03-01T00:14:14;153.70;2252.80
16491;DHT22;8356;51.214;3.270;2023-03-01T00:16:43;153.60;2252.80
16491;DHT22;8356;51.214;3.270;2023-03-01T00:19:17;153.70;2252.80
16491;DHT22;8356;51.214;3.270;2023-03-01T00:21:43;128.90;2252.80
16491;DHT22;8356;51.214;3.270;2023-03-01T00:24:09;128.80;2252.80
16491;DHT22;8356;51.214;3.270;2023-03-01T00:26:36;128.80;2252.80
16491;DHT22;8356;51.214;3.270;2023-03-01T00:29:02;128.60;2252.80
16491;DHT22;8356;51.214;3.270;2023-03-01T00:31:29;128.90;2252.80
16491;DHT22;8356;51.214;3.270;2023-03-01T00:34:00;128.90;2252.80
16491;DHT22;8356;51.214;3.270;2023-03-01T00:36:29;128.90;2252.80
16491;DHT22;8356;51.214;3.270;2023-03-01T00:38:55;128.80;2252.80
16491;DHT22;8356;51.214;3.270;2023-03-01T00:41:22;128.70;2252.80
16491;DHT22;8356;51.214;3.270;2023-03-01T00:43:49;128.90;2252.80
16491;DHT22;8356;51.214;3.270;2023-03-01T00:46:17;153.70;2252.80
16491;DHT22;8356;51.214;3.270;2023-03-01T00:48:44;153.80;2252.80
16491;DHT22;8356;51.214;3.270;2023-03-01T00:51:15;153.70;2252.80
16491;DHT22;8356;51.214;3.270;2023-03-01T00:53:42;153.60;2252.80
16491;DHT22;8356;51.214;3.270;2023-03-01T00:56:09;153.70;2252.80
16491;DHT22;8356;51.214;3.270;2023-03-01T00:58:35;153.80;2252.80
16491;DHT22;8356;51.214;3.270;2023-03-01T01:01:06;153.80;2252.80
16491;DHT22;8356;51.214;3.270;2023-03-01T01:03:32;153.70;2252.80
16491;DHT22;8356;51.214;3.270;2023-03-01T01:05:58;153.70;2252.80
16491;DHT22;8356;51.214;3.270;2023-03-01T01:08:23;153.70;2252.80
16491;DHT22;8356;51.214;3.270;2023-03-01T01:10:49;153.60;2252.80
16491;DHT22;8356;51.214;3.270;2023-03-01T01:13:15;153.60;2252.80
16491;DHT22;8356;51.214;3.270;2023-03-01T01:15:41;153.60;2252.80
16491;DHT22;8356;51.214;3.270;2023-03-01T01:18:06;128.90;2252.80
16491;DHT22;8356;51.214;3.270;2023-03-01T01:20:32;128.80;2252.80
16491;DHT22;8356;51.214;3.270;2023-03-01T01:22:58;128.80;2252.80
16491;DHT22;8356;51.214;3.270;2023-03-01T01:25:23;128.80;2252.80
16491;DHT22;8356;51.214;3.270;2023-03-01T01:27:52;128.70;2252.80
16491;DHT22;8356;51.214;3.270;2023-03-01T01:30:18;128.70;2252.80
16491;DHT22;8356;51.214;3.270;2023-03-01T01:32:43;128.80;2252.80
16491;DHT22;8356;51.214;3.270;2023-03-01T01:35:09;128.90;2252.80
16491;DHT22;8356;51.214;3.270;2023-03-01T01:37:35;128.90;2252.80
16491;DHT22;8356;51.214;3.270;2023-03-01T01:40:01;128.90;2252.80
16491;DHT22;8356;51.214;3.270;2023-03-01T01:42:29;128.90;2252.80
16491;DHT22;8356;51.214;3.270;2023-03-01T01:45:28;128.90;2252.80
16491;DHT22;8356;51.214;3.270;2023-03-01T01:47:57;128.90;2252.80
16491;DHT22;8356;51.214;3.270;2023-03-01T01:50:24;128.90;2252.80
16491;DHT22;8356;51.214;3.270;2023-03-01T01:52:52;153.60;2252.80
16491;DHT22;8356;51.214;3.270;2023-03-01T01:55:23;153.60;2252.80
16491;DHT22;8356;51.214;3.270;2023-03-01T01:57:57;153.60;2252.80
16491;DHT22;8356;51.214;3.270;2023-03-01T02:00:27;128.90;2252.80
16491;DHT22;8356;51.214;3.270;2023-03-01T02:02:59;128.80;2252.80
16491;DHT22;8356;51.214;3.270;2023-03-01T02:05:44;128.70;2252.80
16491;DHT22;8356;51.214;3.270;2023-03-01T02:08:16;128.80;2252.80
16491;DHT22;8356;51.214;3.270;2023-03-01T02:10:44;128.70;2252.80
16491;DHT22;8356;51.214;3.270;2023-03-01T02:13:10;128.80;2252.80
16491;DHT22;8356;51.214;3.270;2023-03-01T02:15:38;128.80;2252.80
16491;DHT22;8356;51.214;3.270;2023-03-01T02:18:05;128.70;2252.80
16491;DHT22;8356;51.214;3.270;2023-03-01T02:23:12;128.60;2252.80
16491;DHT22;8356;51.214;3.270;2023-03-01T02:30:45;128.70;2252.80
16491;DHT22;8356;51.214;3.270;2023-03-01T02:33:31;128.70;2252.80
16491;DHT22;8356;51.214;3.270;2023-03-01T02:36:00;128.80;2252.80
16491;DHT22;8356;51.214;3.270;2023-03-01T02:38:28;128.70;2252.80
16491;DHT22;8356;51.214;3.270;2023-03-01T02:40:54;128.70;2252.80
16491;DHT22;8356;51.214;3.270;2023-03-01T02:43:25;128.70;2252.80
16491;DHT22;8356;51.214;3.270;2023-03-01T02:45:56;128.70;2252.80
16491;DHT22;8356;51.214;3.270;2023-03-01T02:48:22;128.60;2252.80
16491;DHT22;8356;51.214;3.270;2023-03-01T02:51:05;128.60;2252.80
16491;DHT22;8356;51.214;3.270;2023-03-01T02:56:33;128.70;2252.80
16491;DHT22;8356;51.214;3.270;2023-03-01T02:59:00;128.70;2252.80
16491;DHT22;8356;51.214;3.270;2023-03-01T03:01:27;128.60;2252.80
16491;DHT22;8356;51.214;3.270;2023-03-01T03:04:06;128.50;2252.80
16491;DHT22;8356;51.214;3.270;2023-03-01T03:06:33;128.40;2252.80
16491;DHT22;8356;51.214;3.270;2023-03-01T03:08:59;128.40;2252.80
16491;DHT22;8356;51.214;3.270;2023-03-01T03:11:25;128.60;2252.80
16491;DHT22;8356;51.214;3.270;2023-03-01T03:13:51;128.30;2252.80
16491;DHT22;8356;51.214;3.270;2023-03-01T03:16:17;128.20;2252.80
16491;DHT22;8356;51.214;3.270;2023-03-01T03:18:43;128.00;2252.80
16491;DHT22;8356;51.214;3.270;2023-03-01T03:21:10;128.20;2252.80
16491;DHT22;8356;51.214;3.270;2023-03-01T03:23:36;128.30;2252.80
16491;DHT22;8356;51.214;3.270;2023-03-01T03:26:03;128.40;2252.80
16491;DHT22;8356;51.214;3.270;2023-03-01T03:28:33;128.40;2252.80
16491;DHT22;8356;51.214;3.270;2023-03-01T03:31:00;128.40;2252.80
16491;DHT22;8356;51.214;3.270;2023-03-01T03:33:30;128.30;2252.80
16491;DHT22;8356;51.214;3.270;2023-03-01T03:35:55;102.90;2227.20
16491;DHT22;8356;51.214;3.270;2023-03-01T03:38:22;128.10;2252.80
16491;DHT22;8356;51.214;3.270;2023-03-01T03:40:51;128.20;2252.80
16491;DHT22;8356;51.214;3.270;2023-03-01T03:43:22;128.10;2252.80
16491;DHT22;8356;51.214;3.270;2023-03-01T03:45:49;128.20;2252.80
16491;DHT22;8356;51.214;3.270;2023-03-01T03:48:16;128.20;2252.80
16491;DHT22;8356;51.214;3.270;2023-03-01T03:50:48;128.10;2252.80
16491;DHT22;8356;51.214;3.270;2023-03-01T03:53:14;128.10;2252.80
16491;DHT22;8356;51.214;3.270;2023-03-01T03:55:40;128.00;2252.80
16491;DHT22;8356;51.214;3.270;2023-03-01T03:58:08;103.30;2227.20
16491;DHT22;8356;51.214;3.270;2023-03-01T04:00:37;128.00;2252.80
16491;DHT22;8356;51.214;3.270;2023-03-01T04:03:03;128.10;2252.80
16491;DHT22;8356;51.214;3.270;2023-03-01T04:05:30;128.20;2252.80
16491;DHT22;8356;51.214;3.270;2023-03-01T04:07:57;128.10;2252.80
16491;DHT22;8356;51.214;3.270;2023-03-01T04:10:34;128.00;2252.80
16491;DHT22;8356;51.214;3.270;2023-03-01T04:13:00;128.10;2252.80
16491;DHT22;8356;51.214;3.270;2023-03-01T04:15:26;128.10;2252.80
16491;DHT22;8356;51.214;3.270;2023-03-01T04:17:53;128.00;2252.80
16491;DHT22;8356;51.214;3.270;2023-03-01T04:20:22;103.30;2227.20
16491;DHT22;8356;51.214;3.270;2023-03-01T04:22:58;128.00;2252.80
16491;DHT22;8356;51.214;3.270;2023-03-01T04:25:24;128.10;2252.80
16491;DHT22;8356;51.214;3.270;2023-03-01T04:27:50;128.20;2252.80
16491;DHT22;8356;51.214;3.270;2023-03-01T04:30:16;128.20;2252.80
16491;DHT22;8356;51.214;3.270;2023-03-01T04:32:42;128.10;2252.80
16491;DHT22;8356;51.214;3.270;2023-03-01T04:35:08;128.10;2252.80
16491;DHT22;8356;51.214;3.270;2023-03-01T04:37:34;128.20;2252.80
16491;DHT22;8356;51.214;3.270;2023-03-01T04:40:01;128.10;2252.80
16491;DHT22;8356;51.214;3.270;2023-03-01T04:42:33;128.20;2252.80
16491;DHT22;8356;51.214;3.270;2023-03-01T04:44:58;128.20;2252.80
16491;DHT22;8356;51.214;3.270;2023-03-01T04:47:24;128.20;2252.80
16491;DHT22;8356;51.214;3.270;2023-03-01T04:49:50;128.30;2252.80
16491;DHT22;8356;51.214;3.270;2023-03-01T04:52:15;128.30;2252.80
16491;DHT22;8356;51.214;3.270;2023-03-01T04:54:41;128.20;2252.80
16491;DHT22;8356;51.214;3.270;2023-03-01T04:57:08;128.20;2252.80
16491;DHT22;8356;51.214;3.270;2023-03-01T04:59:34;128.20;2252.80
16491;DHT22;8356;51.214;3.270;2023-03-01T05:02:01;128.20;2252.80
16491;DHT22;8356;51.214;3.270;2023-03-01T05:04:27;128.10;2252.80
16491;DHT22;8356;51.214;3.270;2023-03-01T05:06:52;128.20;2252.80
16491;DHT22;8356;51.214;3.270;2023-03-01T05:09:19;128.20;2252.80
16491;DHT22;8356;51.214;3.270;2023-03-01T05:11:44;128.30;2252.80
16491;DHT22;8356;51.214;3.270;2023-03-01T05:14:10;128.30;2252.80
16491;DHT22;8356;51.214;3.270;2023-03-01T05:16:36;128.30;2252.80
16491;DHT22;8356;51.214;3.270;2023-03-01T05:19:03;128.20;2252.80
16491;DHT22;8356;51.214;3.270;2023-03-01T05:21:41;128.10;2252.80
16491;DHT22;8356;51.214;3.270;2023-03-01T05:24:25;128.10;2252.80
16491;DHT22;8356;51.214;3.270;2023-03-01T05:26:52;128.10;2252.80
16491;DHT22;8356;51.214;3.270;2023-03-01T05:29:19;128.00;2252.80
16491;DHT22;8356;51.214;3.270;2023-03-01T05:31:53;128.00;2252.80
16491;DHT22;8356;51.214;3.270;2023-03-01T05:34:24;128.10;2252.80
16491;DHT22;8356;51.214;3.270;2023-03-01T05:36:51;128.10;2252.80
16491;DHT22;8356;51.214;3.270;2023-03-01T05:39:19;128.10;2252.80
16491;DHT22;8356;51.214;3.270;2023-03-01T05:41:47;128.20;2252.80
16491;DHT22;8356;51.214;3.270;2023-03-01T05:44:13;128.20;2252.80
16491;DHT22;8356;51.214;3.270;2023-03-01T05:46:38;128.20;2252.80
16491;DHT22;8356;51.214;3.270;2023-03-01T05:49:04;128.30;2252.80
16491;DHT22;8356;51.214;3.270;2023-03-01T05:51:30;128.30;2252.80
16491;DHT22;8356;51.214;3.270;2023-03-01T05:53:56;128.10;2252.80
16491;DHT22;8356;51.214;3.270;2023-03-01T05:56:22;128.20;2252.80
16491;DHT22;8356;51.214;3.270;2023-03-01T05:58:50;128.20;2252.80
16491;DHT22;8356;51.214;3.270;2023-03-01T06:01:16;128.00;2252.80
16491;DHT22;8356;51.214;3.270;2023-03-01T06:03:42;128.00;2252.80
16491;DHT22;8356;51.214;3.270;2023-03-01T06:06:07;128.00;2252.80
16491;DHT22;8356;51.214;3.270;2023-03-01T06:08:33;128.00;2252.80
16491;DHT22;8356;51.214;3.270;2023-03-01T06:10:59;103.20;2227.20
16491;DHT22;8356;51.214;3.270;2023-03-01T06:13:25;103.00;2227.20
16491;DHT22;8356;51.214;3.270;2023-03-01T06:15:50;102.80;2227.20
16491;DHT22;8356;51.214;3.270;2023-03-01T06:18:17;103.00;2227.20
16491;DHT22;8356;51.214;3.270;2023-03-01T06:20:42;103.10;2227.20
16491;DHT22;8356;51.214;3.270;2023-03-01T06:23:08;103.20;2227.20
16491;DHT22;8356;51.214;3.270;2023-03-01T06:25:33;103.20;2227.20
16491;DHT22;8356;51.214;3.270;2023-03-01T06:27:59;103.20;2227.20
16491;DHT22;8356;51.214;3.270;2023-03-01T06:30:25;103.20;2227.20
16491;DHT22;8356;51.214;3.270;2023-03-01T06:32:52;103.10;2227.20
16491;DHT22;8356;51.214;3.270;2023-03-01T06:35:18;103.00;2227.20
16491;DHT22;8356;51.214;3.270;2023-03-01T06:37:46;103.00;2227.20
16491;DHT22;8356;51.214;3.270;2023-03-01T06:40:13;103.10;2227.20
16491;DHT22;8356;51.214;3.270;2023-03-01T06:42:40;103.10;2227.20
16491;DHT22;8356;51.214;3.270;2023-03-01T06:45:07;103.30;2227.20
16491;DHT22;8356;51.214;3.270;2023-03-01T06:47:34;103.30;2227.20
16491;DHT22;8356;51.214;3.270;2023-03-01T06:50:00;128.00;2252.80
16491;DHT22;8356;51.214;3.270;2023-03-01T06:52:26;128.00;2252.80
16491;DHT22;8356;51.214;3.270;2023-03-01T06:54:52;103.30;2227.20
16491;DHT22;8356;51.214;3.270;2023-03-01T06:57:17;103.30;2227.20
16491;DHT22;8356;51.214;3.270;2023-03-01T06:59:43;128.00;2252.80
16491;DHT22;8356;51.214;3.270;2023-03-01T07:02:12;103.30;2227.20
16491;DHT22;8356;51.214;3.270;2023-03-01T07:04:38;103.20;2227.20
16491;DHT22;8356;51.214;3.270;2023-03-01T07:07:05;103.20;2227.20
16491;DHT22;8356;51.214;3.270;2023-03-01T07:09:30;103.30;2227.20
16491;DHT22;8356;51.214;3.270;2023-03-01T07:11:57;103.30;2227.20
16491;DHT22;8356;51.214;3.270;2023-03-01T07:14:22;103.30;2227.20
16491;DHT22;8356;51.214;3.270;2023-03-01T07:16:51;103.20;2227.20
16491;DHT22;8356;51.214;3.270;2023-03-01T07:19:17;103.30;2227.20
16491;DHT22;8356;51.214;3.270;2023-03-01T07:21:43;128.00;2252.80
16491;DHT22;8356;51.214;3.270;2023-03-01T07:24:09;103.20;2227.20
16491;DHT22;8356;51.214;3.270;2023-03-01T07:26:35;103.30;2227.20
16491;DHT22;8356;51.214;3.270;2023-03-01T07:29:01;103.10;2227.20
16491;DHT22;8356;51.214;3.270;2023-03-01T07:31:27;103.10;2227.20
16491;DHT22;8356;51.214;3.270;2023-03-01T07:33:54;103.10;2227.20
16491;DHT22;8356;51.214;3.270;2023-03-01T07:36:20;103.30;2227.20
16491;DHT22;8356;51.214;3.270;2023-03-01T07:38:46;103.30;2227.20
16491;DHT22;8356;51.214;3.270;2023-03-01T07:41:11;128.00;2252.80
16491;DHT22;8356;51.214;3.270;2023-03-01T07:43:37;128.20;2252.80
16491;DHT22;8356;51.214;3.270;2023-03-01T07:46:03;128.30;2252.80
16491;DHT22;8356;51.214;3.270;2023-03-01T07:48:31;128.60;2252.80
16491;DHT22;8356;51.214;3.270;2023-03-01T07:51:04;128.70;2252.80
16491;DHT22;8356;51.214;3.270;2023-03-01T07:53:31;153.60;2252.80
16491;DHT22;8356;51.214;3.270;2023-03-01T07:56:03;153.70;2252.80
16491;DHT22;8356;51.214;3.270;2023-03-01T07:58:29;153.90;2252.80
16491;DHT22;8356;51.214;3.270;2023-03-01T08:00:55;153.90;2252.80
16491;DHT22;8356;51.214;3.270;2023-03-01T08:03:21;153.90;2252.80
16491;DHT22;8356;51.214;3.270;2023-03-01T08:05:46;154.10;2252.80
16491;DHT22;8356;51.214;3.270;2023-03-01T08:08:12;154.20;2252.80
16491;DHT22;8356;51.214;3.270;2023-03-01T08:10:37;154.40;2252.80
16491;DHT22;8356;51.214;3.270;2023-03-01T08:13:03;154.50;2252.80
16491;DHT22;8356;51.214;3.270;2023-03-01T08:15:29;179.20;2252.80
16491;DHT22;8356;51.214;3.270;2023-03-01T08:17:54;179.20;2252.80
16491;DHT22;8356;51.214;3.270;2023-03-01T08:20:20;154.40;2252.80
16491;DHT22;8356;51.214;3.270;2023-03-01T08:22:46;154.40;2252.80
16491;DHT22;8356;51.214;3.270;2023-03-01T08:25:11;179.20;2252.80
16491;DHT22;8356;51.214;3.270;2023-03-01T08:27:37;179.30;2252.80
16491;DHT22;8356;51.214;3.270;2023-03-01T08:30:03;179.50;2252.80
16491;DHT22;8356;51.214;3.270;2023-03-01T08:32:29;179.60;2252.80
16491;DHT22;8356;51.214;3.270;2023-03-01T08:34:54;179.50;2252.80
16491;DHT22;8356;51.214;3.270;2023-03-01T08:37:20;179.50;2252.80
16491;DHT22;8356;51.214;3.270;2023-03-01T08:39:46;179.50;2252.80
16491;DHT22;8356;51.214;3.270;2023-03-01T08:42:12;179.60;2252.80
16491;DHT22;8356;51.214;3.270;2023-03-01T08:44:37;179.60;2252.80
16491;DHT22;8356;51.214;3.270;2023-03-01T08:47:03;179.80;2252.80
16491;DHT22;8356;51.214;3.270;2023-03-01T08:49:30;179.80;2252.80
16491;DHT22;8356;51.214;3.270;2023-03-01T08:51:57;179.70;2252.80
16491;DHT22;8356;51.214;3.270;2023-03-01T08:54:23;179.50;2252.80
16491;DHT22;8356;51.214;3.270;2023-03-01T08:56:49;179.40;2252.80
16491;DHT22;8356;51.214;3.270;2023-03-01T08:59:17;179.40;2252.80
16491;DHT22;8356;51.214;3.270;2023-03-01T09:01:43;179.40;2252.80
16491;DHT22;8356;51.214;3.270;2023-03-01T09:04:10;179.60;2252.80
16491;DHT22;8356;51.214;3.270;2023-03-01T09:06:36;179.70;2252.80
16491;DHT22;8356;51.214;3.270;2023-03-01T09:09:04;179.90;2252.80
16491;DHT22;8356;51.214;3.270;2023-03-01T09:11:30;179.80;2252.80
16491;DHT22;8356;51.214;3.270;2023-03-01T09:13:55;179.80;2252.80
16491;DHT22;8356;51.214;3.270;2023-03-01T09:16:23;179.80;2252.80
16491;DHT22;8356;51.214;3.270;2023-03-01T09:18:51;179.90;2252.80
16491;DHT22;8356;51.214;3.270;2023-03-01T09:21:18;179.90;2252.80
16491;DHT22;8356;51.214;3.270;2023-03-01T09:23:46;180.00;2252.80
16491;DHT22;8356;51.214;3.270;2023-03-01T09:26:18;180.00;2252.80
16491;DHT22;8356;51.214;3.270;2023-03-01T09:28:45;204.80;2252.80
16491;DHT22;8356;51.214;3.270;2023-03-01T09:31:12;204.90;2252.80
16491;DHT22;8356;51.214;3.270;2023-03-01T09:33:38;205.00;2252.80
16491;DHT22;8356;51.214;3.270;2023-03-01T09:36:08;205.00;2252.80
16491;DHT22;8356;51.214;3.270;2023-03-01T09:38:35;205.10;2252.80
16491;DHT22;8356;51.214;3.270;2023-03-01T09:41:02;205.00;2252.80
16491;DHT22;8356;51.214;3.270;2023-03-01T09:43:44;205.00;2252.80
16491;DHT22;8356;51.214;3.270;2023-03-01T09:46:13;205.10;2252.80
16491;DHT22;8356;51.214;3.270;2023-03-01T09:51:14;205.20;2252.80
16491;DHT22;8356;51.214;3.270;2023-03-01T09:53:42;205.30;2252.80
16491;DHT22;8356;51.214;3.270;2023-03-01T09:56:17;205.40;2252.80
16491;DHT22;8356;51.214;3.270;2023-03-01T10:01:38;205.30;2252.80
16491;DHT22;8356;51.214;3.270;2023-03-01T10:09:34;205.40;2252.80
16491;DHT22;8356;51.214;3.270;2023-03-01T10:12:01;205.40;2252.80
16491;DHT22;8356;51.214;3.270;2023-03-01T10:14:55;205.50;2252.80
16491;DHT22;8356;51.214;3.270;2023-03-01T10:20:18;205.60;2252.80
16491;DHT22;8356;51.214;3.270;2023-03-01T10:22:44;205.50;2252.80
16491;DHT22;8356;51.214;3.270;2023-03-01T10:25:17;205.60;2252.80
16491;DHT22;8356;51.214;3.270;2023-03-01T10:27:54;205.50;2252.80
16491;DHT22;8356;51.214;3.270;2023-03-01T10:30:29;205.50;2252.80
16491;DHT22;8356;51.214;3.270;2023-03-01T10:32:58;205.60;2252.80
16491;DHT22;8356;51.214;3.270;2023-03-01T10:35:27;230.40;2252.80
16491;DHT22;8356;51.214;3.270;2023-03-01T10:40:23;230.50;2252.80
16491;DHT22;8356;51.214;3.270;2023-03-01T10:42:50;230.50;2252.80
16491;DHT22;8356;51.214;3.270;2023-03-01T10:45:38;230.40;2252.80
16491;DHT22;8356;51.214;3.270;2023-03-01T10:50:29;230.40;2252.80
16491;DHT22;8356;51.214;3.270;2023-03-01T10:52:58;205.70;2252.80
16491;DHT22;8356;51.214;3.270;2023-03-01T10:55:30;230.50;2252.80
16491;DHT22;8356;51.214;3.270;2023-03-01T11:00:58;230.60;2252.80
16491;DHT22;8356;51.214;3.270;2023-03-01T11:06:00;230.60;2252.80
16491;DHT22;8356;51.214;3.270;2023-03-01T11:08:37;230.70;2252.80
16491;DHT22;8356;51.214;3.270;2023-03-01T11:13:52;231.00;2252.80
16491;DHT22;8356;51.214;3.270;2023-03-01T11:16:24;231.10;2252.80
16491;DHT22;8356;51.214;3.270;2023-03-01T11:19:20;231.20;2252.80
16491;DHT22;8356;51.214;3.270;2023-03-01T11:29:52;231.30;2252.80
16491;DHT22;8356;51.214;3.270;2023-03-01T11:32:22;256.00;2252.80
16491;DHT22;8356;51.214;3.270;2023-03-01T11:37:40;256.10;2252.80
16491;DHT22;8356;51.214;3.270;2023-03-01T11:40:10;256.10;2252.80
16491;DHT22;8356;51.214;3.270;2023-03-01T11:42:46;256.10;2252.80
16491;DHT22;8356;51.214;3.270;2023-03-01T11:45:13;231.30;2252.80
16491;DHT22;8356;51.214;3.270;2023-03-01T11:47:55;231.20;2252.80
16491;DHT22;8356;51.214;3.270;2023-03-01T11:50:40;231.10;2252.80
16491;DHT22;8356;51.214;3.270;2023-03-01T11:59:11;231.00;2252.80
16491;DHT22;8356;51.214;3.270;2023-03-01T12:15:11;231.20;2252.80
16491;DHT22;8356;51.214;3.270;2023-03-01T12:26:23;231.30;2252.80
16491;DHT22;8356;51.214;3.270;2023-03-01T12:29:20;231.30;2252.80
16491;DHT22;8356;51.214;3.270;2023-03-01T12:31:56;256.10;2252.80
16491;DHT22;8356;51.214;3.270;2023-03-01T12:43:00;256.20;2252.80
16491;DHT22;8356;51.214;3.270;2023-03-01T12:45:43;256.20;2252.80
16491;DHT22;8356;51.214;3.270;2023-03-01T12:48:36;256.10;2252.80
16491;DHT22;8356;51.214;3.270;2023-03-01T12:51:12;256.20;2252.80
16491;DHT22;8356;51.214;3.270;2023-03-01T12:53:41;256.20;2252.80
16491;DHT22;8356;51.214;3.270;2023-03-01T12:56:26;256.50;2252.80
16491;DHT22;8356;51.214;3.270;2023-03-01T12:59:31;256.50;2252.80
16491;DHT22;8356;51.214;3.270;2023-03-01T13:13:12;256.00;2252.80
16491;DHT22;8356;51.214;3.270;2023-03-01T13:15:40;256.10;2252.80
16491;DHT22;8356;51.214;3.270;2023-03-01T13:28:39;256.20;2252.80
16491;DHT22;8356;51.214;3.270;2023-03-01T13:31:10;256.50;2252.80
16491;DHT22;8356;51.214;3.270;2023-03-01T13:33:44;256.50;2252.80
16491;DHT22;8356;51.214;3.270;2023-03-01T13:36:45;256.60;2252.80
16491;DHT22;8356;51.214;3.270;2023-03-01T13:46:53;256.00;2252.80
16491;DHT22;8356;51.214;3.270;2023-03-01T13:49:24;256.00;2252.80
16491;DHT22;8356;51.214;3.270;2023-03-01T13:51:52;256.10;2252.80
16491;DHT22;8356;51.214;3.270;2023-03-01T13:54:28;256.30;2252.80
16491;DHT22;8356;51.214;3.270;2023-03-01T13:56:55;256.50;2252.80
16491;DHT22;8356;51.214;3.270;2023-03-01T13:59:24;256.80;2252.80
16491;DHT22;8356;51.214;3.270;2023-03-01T14:01:55;256.70;2252.80
16491;DHT22;8356;51.214;3.270;2023-03-01T14:04:22;256.50;2252.80
16491;DHT22;8356;51.214;3.270;2023-03-01T14:06:48;256.30;2252.80
16491;DHT22;8356;51.214;3.270;2023-03-01T14:09:20;256.50;2252.80
16491;DHT22;8356;51.214;3.270;2023-03-01T14:14:48;256.50;2252.80
16491;DHT22;8356;51.214;3.270;2023-03-01T14:20:30;256.30;2252.80
16491;DHT22;8356;51.214;3.270;2023-03-01T14:22:59;256.00;2252.80
16491;DHT22;8356;51.214;3.270;2023-03-01T14:25:32;256.00;2252.80
16491;DHT22;8356;51.214;3.270;2023-03-01T14:28:13;231.30;2252.80
16491;DHT22;8356;51.214;3.270;2023-03-01T14:30:59;231.30;2252.80
16491;DHT22;8356;51.214;3.270;2023-03-01T14:33:34;231.30;2252.80
16491;DHT22;8356;51.214;3.270;2023-03-01T14:36:05;231.20;2252.80
16491;DHT22;8356;51.214;3.270;2023-03-01T14:43:35;231.30;2252.80
16491;DHT22;8356;51.214;3.270;2023-03-01T14:46:02;231.30;2252.80
16491;DHT22;8356;51.214;3.270;2023-03-01T14:48:28;231.20;2252.80
16491;DHT22;8356;51.214;3.270;2023-03-01T14:50:55;231.10;2252.80
16491;DHT22;8356;51.214;3.270;2023-03-01T14:53:29;231.10;2252.80
16491;DHT22;8356;51.214;3.270;2023-03-01T14:55:59;231.20;2252.80
16491;DHT22;8356;51.214;3.270;2023-03-01T14:58:28;256.00;2252.80
16491;DHT22;8356;51.214;3.270;2023-03-01T15:00:57;231.20;2252.80
16491;DHT22;8356;51.214;3.270;2023-03-01T15:03:55;231.20;2252.80
16491;DHT22;8356;51.214;3.270;2023-03-01T15:06:22;256.00;2252.80
16491;DHT22;8356;51.214;3.270;2023-03-01T15:08:52;231.20;2252.80
16491;DHT22;8356;51.214;3.270;2023-03-01T15:11:25;231.20;2252.80
16491;DHT22;8356;51.214;3.270;2023-03-01T15:13:52;231.20;2252.80
16491;DHT22;8356;51.214;3.270;2023-03-01T15:16:21;256.20;2252.80
16491;DHT22;8356;51.214;3.270;2023-03-01T15:18:55;256.20;2252.80
16491;DHT22;8356;51.214;3.270;2023-03-01T15:21:23;256.00;2252.80
16491;DHT22;8356;51.214;3.270;2023-03-01T15:23:56;256.10;2252.80
16491;DHT22;8356;51.214;3.270;2023-03-01T15:26:28;256.10;2252.80
16491;DHT22;8356;51.214;3.270;2023-03-01T15:28:57;256.20;2252.80
16491;DHT22;8356;51.214;3.270;2023-03-01T15:31:36;256.00;2252.80
16491;DHT22;8356;51.214;3.270;2023-03-01T15:34:22;231.30;2252.80
16491;DHT22;8356;51.214;3.270;2023-03-01T15:36:49;231.30;2252.80
16491;DHT22;8356;51.214;3.270;2023-03-01T15:39:35;231.10;2252.80
16491;DHT22;8356;51.214;3.270;2023-03-01T15:42:09;231.00;2252.80
16491;DHT22;8356;51.214;3.270;2023-03-01T15:44:37;231.10;2252.80
16491;DHT22;8356;51.214;3.270;2023-03-01T15:47:22;231.10;2252.80
16491;DHT22;8356;51.214;3.270;2023-03-01T15:49:48;231.10;2252.80
16491;DHT22;8356;51.214;3.270;2023-03-01T15:52:40;231.10;2252.80
16491;DHT22;8356;51.214;3.270;2023-03-01T15:55:21;231.10;2252.80
16491;DHT22;8356;51.214;3.270;2023-03-01T15:57:48;230.90;2252.80
16491;DHT22;8356;51.214;3.270;2023-03-01T16:00:14;230.80;2252.80
16491;DHT22;8356;51.214;3.270;2023-03-01T16:02:41;230.70;2252.80
16491;DHT22;8356;51.214;3.270;2023-03-01T16:05:34;230.90;2252.80
16491;DHT22;8356;51.214;3.270;2023-03-01T16:08:02;230.90;2252.80
16491;DHT22;8356;51.214;3.270;2023-03-01T16:10:28;231.30;2252.80
16491;DHT22;8356;51.214;3.270;2023-03-01T16:12:54;230.80;2252.80
16491;DHT22;8356;51.214;3.270;2023-03-01T16:15:22;230.70;2252.80
16491;DHT22;8356;51.214;3.270;2023-03-01T16:17:49;230.60;2252.80
16491;DHT22;8356;51.214;3.270;2023-03-01T16:20:15;230.60;2252.80
16491;DHT22;8356;51.214;3.270;2023-03-01T16:22:42;230.60;2252.80
16491;DHT22;8356;51.214;3.270;2023-03-01T16:25:10;230.70;2252.80
16491;DHT22;8356;51.214;3.270;2023-03-01T16:27:35;230.70;2252.80
16491;DHT22;8356;51.214;3.270;2023-03-01T16:30:01;230.60;2252.80
16491;DHT22;8356;51.214;3.270;2023-03-01T16:32:27;230.60;2252.80
16491;DHT22;8356;51.214;3.270;2023-03-01T16:34:53;230.60;2252.80
16491;DHT22;8356;51.214;3.270;2023-03-01T16:37:18;230.40;2252.80
16491;DHT22;8356;51.214;3.270;2023-03-01T16:39:44;230.50;2252.80
16491;DHT22;8356;51.214;3.270;2023-03-01T16:42:10;230.60;2252.80
16491;DHT22;8356;51.214;3.270;2023-03-01T16:44:35;230.50;2252.80
16491;DHT22;8356;51.214;3.270;2023-03-01T16:47:01;230.50;2252.80
16491;DHT22;8356;51.214;3.270;2023-03-01T16:49:27;230.60;2252.80
16491;DHT22;8356;51.214;3.270;2023-03-01T16:51:55;230.60;2252.80
16491;DHT22;8356;51.214;3.270;2023-03-01T16:54:21;230.50;2252.80
16491;DHT22;8356;51.214;3.270;2023-03-01T16:56:48;230.50;2252.80
16491;DHT22;8356;51.214;3.270;2023-03-01T16:59:13;230.50;2252.80
16491;DHT22;8356;51.214;3.270;2023-03-01T17:01:39;230.60;2252.80
16491;DHT22;8356;51.214;3.270;2023-03-01T17:04:06;230.50;2252.80
16491;DHT22;8356;51.214;3.270;2023-03-01T17:06:32;230.60;2252.80
16491;DHT22;8356;51.214;3.270;2023-03-01T17:08:58;230.60;2252.80
16491;DHT22;8356;51.214;3.270;2023-03-01T17:11:24;230.60;2252.80
16491;DHT22;8356;51.214;3.270;2023-03-01T17:13:50;230.60;2252.80
16491;DHT22;8356;51.214;3.270;2023-03-01T17:16:18;230.60;2252.80
16491;DHT22;8356;51.214;3.270;2023-03-01T17:18:46;230.60;2252.80
16491;DHT22;8356;51.214;3.270;2023-03-01T17:21:12;230.70;2252.80